sensor_id;sensor_type;location;lat;lon;timestamp;pressure;altitude;pressure_sealevel;temperature;humidity
78590;BME280;67888;50.228;7.828;2024-02-23T00:01:49;96788.22;;;7.94;100.00
78590;BME280;67888;50.228;7.828;2024-02-23T00:06:50;96781.41;;;7.58;100.00
78590;BME280;67888;50.228;7.828;2024-02-23T00:11:51;96803.91;;;7.76;100.00
78590;BME280;67888;50.228;7.828;2024-02-23T00:16:51;96826.50;;;7.64;100.00
78590;BME280;67888;50.228;7.828;2024-02-23T00:21:51;96863.72;;;7.43;100.00
78590;BME280;67888;50.228;7.828;2024-02-23T00:26:53;96840.28;;;7.30;100.00
78590;BME280;67888;50.228;7.828;2024-02-23T00:31:53;96852.97;;;7.14;100.00
78590;BME280;67888;50.228;7.828;2024-02-23T00:36:54;96893.13;;;6.87;100.00
78590;BME280;67888;50.228;7.828;2024-02-23T00:41:54;96897.19;;;6.93;100.00
78590;BME280;67888;50.228;7.828;2024-02-23T00:46:55;96895.34;;;6.94;100.00
78590;BME280;67888;50.228;7.828;2024-02-23T00:51:58;96916.84;;;6.91;100.00
78590;BME280;67888;50.228;7.828;2024-02-23T00:56:58;96927.81;;;7.01;100.00
78590;BME280;67888;50.228;7.828;2024-02-23T01:01:58;96956.63;;;6.65;100.00
78590;BME280;67888;50.228;7.828;2024-02-23T01:06:59;96954.16;;;6.82;100.00
78590;BME280;67888;50.228;7.828;2024-02-23T01:12:00;96945.06;;;6.80;100.00
78590;BME280;67888;50.228;7.828;2024-02-23T01:17:00;96943.81;;;6.77;100.00
78590;BME280;67888;50.228;7.828;2024-02-23T01:22:01;96967.47;;;6.95;100.00
78590;BME280;67888;50.228;7.828;2024-02-23T01:27:01;96963.16;;;6.54;100.00
78590;BME280;67888;50.228;7.828;2024-02-23T01:32:02;96999.53;;;6.51;100.00
78590;BME280;67888;50.228;7.828;2024-02-23T01:37:03;96979.03;;;6.58;100.00
78590;BME280;67888;50.228;7.828;2024-02-23T01:42:03;97000.88;;;6.48;100.00
78590;BME280;67888;50.228;7.828;2024-02-23T01:47:04;96991.50;;;6.47;100.00
78590;BME280;67888;50.228;7.828;2024-02-23T01:52:05;97007.50;;;6.45;100.00
78590;BME280;67888;50.228;7.828;2024-02-23T01:57:06;97006.59;;;6.50;100.00
78590;BME280;67888;50.228;7.828;2024-02-23T02:02:09;97010.97;;;6.41;100.00
78590;BME280;67888;50.228;7.828;2024-02-23T02:07:09;97012.41;;;6.33;100.00
78590;BME280;67888;50.228;7.828;2024-02-23T02:12:10;97010.00;;;6.37;100.00
78590;BME280;67888;50.228;7.828;2024-02-23T02:17:10;97026.53;;;6.46;100.00
78590;BME280;67888;50.228;7.828;2024-02-23T02:22:11;97033.56;;;6.59;100.00
78590;BME280;67888;50.228;7.828;2024-02-23T02:27:11;97030.19;;;6.59;100.00
78590;BME280;67888;50.228;7.828;2024-02-23T02:32:12;97023.72;;;6.56;100.00
78590;BME280;67888;50.228;7.828;2024-02-23T02:37:12;97010.97;;;6.41;100.00
78590;BME280;67888;50.228;7.828;2024-02-23T02:42:12;97004.41;;;6.43;100.00
78590;BME280;67888;50.228;7.828;2024-02-23T02:47:13;97016.75;;;6.52;100.00
78590;BME280;67888;50.228;7.828;2024-02-23T02:52:13;97013.97;;;6.34;100.00
78590;BME280;67888;50.228;7.828;2024-02-23T02:57:14;97027.81;;;6.35;100.00
78590;BME280;67888;50.228;7.828;2024-02-23T03:02:15;97031.28;;;6.44;100.00
78590;BME280;67888;50.228;7.828;2024-02-23T03:07:18;97027.13;;;6.43;100.00
78590;BME280;67888;50.228;7.828;2024-02-23T03:12:19;97022.28;;;6.36;100.00
78590;BME280;67888;50.228;7.828;2024-02-23T03:17:19;97024.22;;;6.44;100.00
78590;BME280;67888;50.228;7.828;2024-02-23T03:22:20;97036.88;;;6.51;100.00
78590;BME280;67888;50.228;7.828;2024-02-23T03:27:28;97038.19;;;6.76;100.00
78590;BME280;67888;50.228;7.828;2024-02-23T03:32:28;97056.41;;;6.67;100.00
78590;BME280;67888;50.228;7.828;2024-02-23T03:37:31;97064.28;;;6.90;100.00
78590;BME280;67888;50.228;7.828;2024-02-23T03:42:32;97058.97;;;6.45;100.00
78590;BME280;67888;50.228;7.828;2024-02-23T03:47:33;97056.72;;;6.25;100.00
78590;BME280;67888;50.228;7.828;2024-02-23T03:52:33;97061.75;;;6.35;100.00
78590;BME280;67888;50.228;7.828;2024-02-23T03:57:33;97085.56;;;6.20;100.00
78590;BME280;67888;50.228;7.828;2024-02-23T04:02:34;97075.41;;;6.32;100.00
78590;BME280;67888;50.228;7.828;2024-02-23T04:07:35;97068.50;;;6.63;100.00
78590;BME280;67888;50.228;7.828;2024-02-23T04:12:35;97068.31;;;6.46;100.00
78590;BME280;67888;50.228;7.828;2024-02-23T04:17:36;97076.16;;;6.60;100.00
78590;BME280;67888;50.228;7.828;2024-02-23T04:22:37;97079.81;;;6.72;100.00
78590;BME280;67888;50.228;7.828;2024-02-23T04:27:38;97071.06;;;6.91;100.00
78590;BME280;67888;50.228;7.828;2024-02-23T04:32:38;97063.75;;;6.65;100.00
78590;BME280;67888;50.228;7.828;2024-02-23T04:37:39;97062.31;;;6.59;100.00
78590;BME280;67888;50.228;7.828;2024-02-23T04:42:40;97064.56;;;6.52;100.00
78590;BME280;67888;50.228;7.828;2024-02-23T04:47:40;97066.88;;;6.40;100.00
78590;BME280;67888;50.228;7.828;2024-02-23T04:52:40;97070.34;;;6.49;100.00
78590;BME280;67888;50.228;7.828;2024-02-23T04:57:42;97063.59;;;6.48;100.00
78590;BME280;67888;50.228;7.828;2024-02-23T05:02:43;97062.94;;;6.42;100.00
78590;BME280;67888;50.228;7.828;2024-02-23T05:07:43;97069.59;;;6.35;100.00
78590;BME280;67888;50.228;7.828;2024-02-23T05:12:43;97063.59;;;6.48;100.00
78590;BME280;67888;50.228;7.828;2024-02-23T05:17:44;97063.22;;;6.14;100.00
78590;BME280;67888;50.228;7.828;2024-02-23T05:22:44;97047.94;;;6.07;100.00
78590;BME280;67888;50.228;7.828;2024-02-23T05:27:45;97036.25;;;6.04;100.00
78590;BME280;67888;50.228;7.828;2024-02-23T05:32:45;97024.28;;;5.85;100.00
78590;BME280;67888;50.228;7.828;2024-02-23T05:37:47;97034.41;;;5.91;100.00
78590;BME280;67888;50.228;7.828;2024-02-23T05:42:47;97013.84;;;5.71;100.00
78590;BME280;67888;50.228;7.828;2024-02-23T05:47:48;97014.63;;;5.85;100.00
78590;BME280;67888;50.228;7.828;2024-02-23T05:52:48;97016.00;;;5.96;100.00
78590;BME280;67888;50.228;7.828;2024-02-23T05:57:49;97019.19;;;5.80;100.00
78590;BME280;67888;50.228;7.828;2024-02-23T06:02:50;97036.19;;;5.77;100.00
78590;BME280;67888;50.228;7.828;2024-02-23T06:07:51;97051.28;;;5.80;100.00
78590;BME280;67888;50.228;7.828;2024-02-23T06:12:51;97049.00;;;5.92;100.00
78590;BME280;67888;50.228;7.828;2024-02-23T06:17:52;97058.19;;;6.03;100.00
78590;BME280;67888;50.228;7.828;2024-02-23T06:22:52;97053.72;;;5.90;100.00
78590;BME280;67888;50.228;7.828;2024-02-23T06:27:53;97059.53;;;6.01;100.00
78590;BME280;67888;50.228;7.828;2024-02-23T06:32:53;97050.84;;;6.05;100.00
78590;BME280;67888;50.228;7.828;2024-02-23T06:37:54;97059.16;;;5.94;100.00
78590;BME280;67888;50.228;7.828;2024-02-23T06:42:54;97076.75;;;6.16;100.00
78590;BME280;67888;50.228;7.828;2024-02-23T06:47:55;97082.34;;;6.09;100.00
78590;BME280;67888;50.228;7.828;2024-02-23T06:52:55;97082.66;;;6.21;100.00
78590;BME280;67888;50.228;7.828;2024-02-23T06:57:55;97079.88;;;6.45;100.00
78590;BME280;67888;50.228;7.828;2024-02-23T07:02:56;97100.66;;;6.50;100.00
78590;BME280;67888;50.228;7.828;2024-02-23T07:07:59;97098.88;;;6.59;100.00
78590;BME280;67888;50.228;7.828;2024-02-23T07:12:59;97101.13;;;6.52;100.00
78590;BME280;67888;50.228;7.828;2024-02-23T07:18:00;97102.03;;;6.97;100.00
78590;BME280;67888;50.228;7.828;2024-02-23T07:23:00;97113.91;;;6.54;100.00
78590;BME280;67888;50.228;7.828;2024-02-23T07:28:01;97109.34;;;6.73;100.00
78590;BME280;67888;50.228;7.828;2024-02-23T07:33:01;97118.13;;;6.91;100.00
78590;BME280;67888;50.228;7.828;2024-02-23T07:38:03;97124.22;;;7.22;100.00
78590;BME280;67888;50.228;7.828;2024-02-23T07:43:04;97118.47;;;7.11;100.00
78590;BME280;67888;50.228;7.828;2024-02-23T07:48:05;97123.88;;;7.15;100.00
78590;BME280;67888;50.228;7.828;2024-02-23T07:53:05;97133.63;;;7.59;100.00
78590;BME280;67888;50.228;7.828;2024-02-23T07:58:06;97134.91;;;7.48;100.00
78590;BME280;67888;50.228;7.828;2024-02-23T08:03:07;97146.22;;;7.57;100.00
78590;BME280;67888;50.228;7.828;2024-02-23T08:08:08;97148.38;;;7.55;100.00
78590;BME280;67888;50.228;7.828;2024-02-23T08:13:09;97144.97;;;7.54;100.00
78590;BME280;67888;50.228;7.828;2024-02-23T08:18:11;97141.63;;;7.63;100.00
78590;BME280;67888;50.228;7.828;2024-02-23T08:23:11;97151.38;;;7.48;100.00
78590;BME280;67888;50.228;7.828;2024-02-23T08:28:12;97160.56;;;7.82;100.00
78590;BME280;67888;50.228;7.828;2024-02-23T08:33:13;97170.66;;;7.52;100.00
78590;BME280;67888;50.228;7.828;2024-02-23T08:38:13;97169.06;;;7.65;100.00
78590;BME280;67888;50.228;7.828;2024-02-23T08:43:14;97164.25;;;7.59;100.00
78590;BME280;67888;50.228;7.828;2024-02-23T08:48:14;97175.91;;;7.52;100.00
78590;BME280;67888;50.228;7.828;2024-02-23T08:53:15;97174.31;;;7.65;100.00
78590;BME280;67888;50.228;7.828;2024-02-23T08:58:21;97171.91;;;7.55;100.00
78590;BME280;67888;50.228;7.828;2024-02-23T09:03:23;97170.56;;;7.58;100.00
78590;BME280;67888;50.228;7.828;2024-02-23T09:08:23;97174.13;;;7.62;100.00
78590;BME280;67888;50.228;7.828;2024-02-23T09:13:24;97174.88;;;7.62;100.00
78590;BME280;67888;50.228;7.828;2024-02-23T09:18:26;97176.19;;;7.73;100.00
78590;BME280;67888;50.228;7.828;2024-02-23T09:23:27;97187.34;;;8.01;100.00
78590;BME280;67888;50.228;7.828;2024-02-23T09:28:30;97176.47;;;8.39;100.00
78590;BME280;67888;50.228;7.828;2024-02-23T09:33:30;97170.22;;;8.26;100.00
78590;BME280;67888;50.228;7.828;2024-02-23T09:38:31;97168.31;;;8.80;100.00
78590;BME280;67888;50.228;7.828;2024-02-23T09:43:33;97176.75;;;9.77;100.00
78590;BME280;67888;50.228;7.828;2024-02-23T09:48:34;97174.97;;;8.86;100.00
78590;BME280;67888;50.228;7.828;2024-02-23T09:53:37;97164.84;;;8.62;100.00
78590;BME280;67888;50.228;7.828;2024-02-23T09:58:39;97166.56;;;9.32;100.00
78590;BME280;67888;50.228;7.828;2024-02-23T10:03:41;97163.16;;;9.40;100.00
78590;BME280;67888;50.228;7.828;2024-02-23T10:08:42;97167.47;;;8.31;100.00
78590;BME280;67888;50.228;7.828;2024-02-23T10:13:42;97171.47;;;9.25;100.00
78590;BME280;67888;50.228;7.828;2024-02-23T10:18:43;97185.66;;;9.07;100.00
78590;BME280;67888;50.228;7.828;2024-02-23T10:23:44;97179.59;;;8.89;100.00
78590;BME280;67888;50.228;7.828;2024-02-23T10:28:45;97182.91;;;9.12;100.00
78590;BME280;67888;50.228;7.828;2024-02-23T10:33:47;97186.94;;;9.52;100.00
78590;BME280;67888;50.228;7.828;2024-02-23T10:38:54;97185.69;;;9.93;100.00
78590;BME280;67888;50.228;7.828;2024-02-23T10:43:55;97192.81;;;9.84;100.00
78590;BME280;67888;50.228;7.828;2024-02-23T10:49:01;97199.25;;;9.26;100.00
78590;BME280;67888;50.228;7.828;2024-02-23T10:54:02;97201.72;;;9.14;100.00
78590;BME280;67888;50.228;7.828;2024-02-23T10:59:03;97193.56;;;9.41;100.00
78590;BME280;67888;50.228;7.828;2024-02-23T11:04:07;97192.84;;;9.49;100.00
78590;BME280;67888;50.228;7.828;2024-02-23T11:09:13;97184.31;;;9.44;100.00
78590;BME280;67888;50.228;7.828;2024-02-23T11:14:13;97186.50;;;9.59;100.00
78590;BME280;67888;50.228;7.828;2024-02-23T11:19:14;97196.63;;;9.17;100.00
78590;BME280;67888;50.228;7.828;2024-02-23T11:24:16;97179.38;;;9.42;100.00
78590;BME280;67888;50.228;7.828;2024-02-23T11:29:18;97183.34;;;9.14;100.00
78590;BME280;67888;50.228;7.828;2024-02-23T11:34:29;97166.88;;;9.39;100.00
78590;BME280;67888;50.228;7.828;2024-02-23T11:39:30;97175.22;;;9.58;100.00
78590;BME280;67888;50.228;7.828;2024-02-23T11:44:31;97180.91;;;9.52;100.00
78590;BME280;67888;50.228;7.828;2024-02-23T11:49:31;97177.09;;;9.49;100.00
78590;BME280;67888;50.228;7.828;2024-02-23T11:54:32;97178.16;;;9.74;100.00
78590;BME280;67888;50.228;7.828;2024-02-23T11:59:32;97172.00;;;9.61;100.00
78590;BME280;67888;50.228;7.828;2024-02-23T12:04:34;97172.13;;;9.56;100.00
78590;BME280;67888;50.228;7.828;2024-02-23T12:09:35;97174.75;;;9.82;100.00
78590;BME280;67888;50.228;7.828;2024-02-23T12:14:36;97165.16;;;9.95;100.00
78590;BME280;67888;50.228;7.828;2024-02-23T12:19:40;97169.38;;;10.43;100.00
78590;BME280;67888;50.228;7.828;2024-02-23T12:24:41;97167.25;;;10.74;100.00
78590;BME280;67888;50.228;7.828;2024-02-23T12:29:42;97166.75;;;10.43;100.00
78590;BME280;67888;50.228;7.828;2024-02-23T12:34:43;97159.16;;;10.79;100.00
78590;BME280;67888;50.228;7.828;2024-02-23T12:39:44;97146.16;;;11.33;100.00
78590;BME280;67888;50.228;7.828;2024-02-23T12:44:45;97144.09;;;11.18;100.00
78590;BME280;67888;50.228;7.828;2024-02-23T12:49:48;97148.78;;;10.83;100.00
78590;BME280;67888;50.228;7.828;2024-02-23T12:54:48;97151.81;;;10.64;100.00
78590;BME280;67888;50.228;7.828;2024-02-23T12:59:48;97157.44;;;10.54;100.00
78590;BME280;67888;50.228;7.828;2024-02-23T13:04:49;97148.75;;;10.62;100.00
78590;BME280;67888;50.228;7.828;2024-02-23T13:09:50;97146.44;;;10.60;100.00
78590;BME280;67888;50.228;7.828;2024-02-23T13:14:51;97147.31;;;10.73;100.00
78590;BME280;67888;50.228;7.828;2024-02-23T13:19:52;97144.75;;;10.56;100.00
78590;BME280;67888;50.228;7.828;2024-02-23T13:24:52;97137.94;;;11.13;100.00
78590;BME280;67888;50.228;7.828;2024-02-23T13:29:53;97149.81;;;10.90;100.00
78590;BME280;67888;50.228;7.828;2024-02-23T13:34:53;97149.16;;;10.72;100.00
78590;BME280;67888;50.228;7.828;2024-02-23T13:39:54;97140.44;;;10.81;100.00
78590;BME280;67888;50.228;7.828;2024-02-23T13:44:55;97136.94;;;10.97;100.00
78590;BME280;67888;50.228;7.828;2024-02-23T13:49:56;97131.63;;;10.47;100.00
78590;BME280;67888;50.228;7.828;2024-02-23T13:54:56;97132.41;;;10.48;100.00
78590;BME280;67888;50.228;7.828;2024-02-23T13:59:57;97136.06;;;10.26;100.00
78590;BME280;67888;50.228;7.828;2024-02-23T14:05:01;97128.38;;;9.95;100.00
78590;BME280;67888;50.228;7.828;2024-02-23T14:10:03;97128.78;;;10.14;100.00
78590;BME280;67888;50.228;7.828;2024-02-23T14:15:04;97127.69;;;10.15;100.00
78590;BME280;67888;50.228;7.828;2024-02-23T14:20:05;97130.03;;;10.25;100.00
78590;BME280;67888;50.228;7.828;2024-02-23T14:25:07;97132.50;;;10.13;100.00
78590;BME280;67888;50.228;7.828;2024-02-23T14:30:08;97159.00;;;9.56;100.00
78590;BME280;67888;50.228;7.828;2024-02-23T14:35:10;97151.34;;;8.38;100.00
78590;BME280;67888;50.228;7.828;2024-02-23T14:40:11;97162.03;;;8.50;100.00
78590;BME280;67888;50.228;7.828;2024-02-23T14:45:12;97148.59;;;12.12;100.00
78590;BME280;67888;50.228;7.828;2024-02-23T14:50:13;97141.47;;;13.10;100.00
78590;BME280;67888;50.228;7.828;2024-02-23T14:55:14;97145.97;;;23.36;55.73
78590;BME280;67888;50.228;7.828;2024-02-23T15:00:15;97118.47;;;21.84;51.00
78590;BME280;67888;50.228;7.828;2024-02-23T15:05:15;97125.81;;;23.21;38.25
78590;BME280;67888;50.228;7.828;2024-02-23T15:10:17;97124.06;;;16.38;61.42
78590;BME280;67888;50.228;7.828;2024-02-23T15:15:18;97114.25;;;13.34;100.00
78590;BME280;67888;50.228;7.828;2024-02-23T15:20:18;97110.69;;;12.29;100.00
78590;BME280;67888;50.228;7.828;2024-02-23T15:25:19;97104.72;;;11.63;100.00
78590;BME280;67888;50.228;7.828;2024-02-23T15:30:20;97107.63;;;11.49;100.00
78590;BME280;67888;50.228;7.828;2024-02-23T15:35:21;97111.72;;;10.75;100.00
78590;BME280;67888;50.228;7.828;2024-02-23T15:40:21;97116.03;;;11.01;100.00
78590;BME280;67888;50.228;7.828;2024-02-23T15:45:22;97118.41;;;13.75;100.00
78590;BME280;67888;50.228;7.828;2024-02-23T15:50:22;97112.28;;;16.58;69.19
78590;BME280;67888;50.228;7.828;2024-02-23T15:55:23;97117.72;;;12.13;94.42
78590;BME280;67888;50.228;7.828;2024-02-23T16:00:24;97115.88;;;12.62;100.00
78590;BME280;67888;50.228;7.828;2024-02-23T16:05:24;97111.88;;;11.74;100.00
78590;BME280;67888;50.228;7.828;2024-02-23T16:10:25;97121.00;;;13.19;83.12
78590;BME280;67888;50.228;7.828;2024-02-23T16:15:25;97122.03;;;13.55;85.28
78590;BME280;67888;50.228;7.828;2024-02-23T16:20:26;97115.31;;;12.44;100.00
78590;BME280;67888;50.228;7.828;2024-02-23T16:25:26;97116.47;;;11.98;100.00
78590;BME280;67888;50.228;7.828;2024-02-23T16:30:26;97116.59;;;11.48;100.00
78590;BME280;67888;50.228;7.828;2024-02-23T16:35:29;97114.16;;;11.43;100.00
78590;BME280;67888;50.228;7.828;2024-02-23T16:40:30;97139.00;;;10.62;100.00
78590;BME280;67888;50.228;7.828;2024-02-23T16:45:30;97130.41;;;9.63;100.00
78590;BME280;67888;50.228;7.828;2024-02-23T16:50:31;97152.97;;;9.30;100.00
78590;BME280;67888;50.228;7.828;2024-02-23T16:55:32;97154.94;;;8.98;100.00
78590;BME280;67888;50.228;7.828;2024-02-23T17:00:32;97140.59;;;9.05;100.00
78590;BME280;67888;50.228;7.828;2024-02-23T17:05:32;97147.69;;;8.95;100.00
78590;BME280;67888;50.228;7.828;2024-02-23T17:10:33;97134.91;;;8.46;100.00
78590;BME280;67888;50.228;7.828;2024-02-23T17:15:34;97152.16;;;8.24;100.00
78590;BME280;67888;50.228;7.828;2024-02-23T17:20:35;97144.47;;;8.19;100.00
78590;BME280;67888;50.228;7.828;2024-02-23T17:25:36;97152.50;;;8.23;100.00
78590;BME280;67888;50.228;7.828;2024-02-23T17:30:36;97154.84;;;8.02;100.00
78590;BME280;67888;50.228;7.828;2024-02-23T17:35:38;97162.59;;;7.85;100.00
78590;BME280;67888;50.228;7.828;2024-02-23T17:40:38;97150.16;;;7.90;100.00
78590;BME280;67888;50.228;7.828;2024-02-23T17:45:38;97156.03;;;7.74;100.00
78590;BME280;67888;50.228;7.828;2024-02-23T17:50:39;97159.03;;;7.81;100.00
78590;BME280;67888;50.228;7.828;2024-02-23T17:55:40;97163.25;;;7.68;100.00
78590;BME280;67888;50.228;7.828;2024-02-23T18:00:40;97166.97;;;7.53;100.00
78590;BME280;67888;50.228;7.828;2024-02-23T18:05:41;97168.63;;;7.49;100.00
78590;BME280;67888;50.228;7.828;2024-02-23T18:10:42;97170.84;;;7.56;100.00
78590;BME280;67888;50.228;7.828;2024-02-23T18:15:44;97181.13;;;7.52;100.00
78590;BME280;67888;50.228;7.828;2024-02-23T18:20:44;97188.88;;;7.58;100.00
78590;BME280;67888;50.228;7.828;2024-02-23T18:25:45;97194.16;;;7.44;100.00
78590;BME280;67888;50.228;7.828;2024-02-23T18:30:45;97191.16;;;7.23;100.00
78590;BME280;67888;50.228;7.828;2024-02-23T18:35:47;97196.03;;;7.16;100.00
78590;BME280;67888;50.228;7.828;2024-02-23T18:40:48;97204.25;;;7.23;100.00
78590;BME280;67888;50.228;7.828;2024-02-23T18:45:49;97205.00;;;7.37;100.00
78590;BME280;67888;50.228;7.828;2024-02-23T18:50:49;97192.81;;;7.33;100.00
78590;BME280;67888;50.228;7.828;2024-02-23T18:55:51;97190.31;;;7.14;100.00
78590;BME280;67888;50.228;7.828;2024-02-23T19:00:52;97197.69;;;6.84;100.00
78590;BME280;67888;50.228;7.828;2024-02-23T19:05:56;97185.41;;;6.85;100.00
78590;BME280;67888;50.228;7.828;2024-02-23T19:10:58;97180.28;;;6.66;100.00
78590;BME280;67888;50.228;7.828;2024-02-23T19:15:59;97187.25;;;6.84;100.00
78590;BME280;67888;50.228;7.828;2024-02-23T19:21:00;97175.34;;;6.65;100.00
78590;BME280;67888;50.228;7.828;2024-02-23T19:26:00;97180.50;;;6.83;100.00
78590;BME280;67888;50.228;7.828;2024-02-23T19:31:01;97172.66;;;6.70;100.00
78590;BME280;67888;50.228;7.828;2024-02-23T19:36:03;97175.84;;;6.53;100.00
78590;BME280;67888;50.228;7.828;2024-02-23T19:41:05;97195.69;;;6.22;100.00
78590;BME280;67888;50.228;7.828;2024-02-23T19:46:06;97194.03;;;5.61;100.00
78590;BME280;67888;50.228;7.828;2024-02-23T19:51:06;97195.47;;;6.04;100.00
78590;BME280;67888;50.228;7.828;2024-02-23T19:56:09;97186.72;;;5.95;100.00
78590;BME280;67888;50.228;7.828;2024-02-23T20:01:09;97196.38;;;5.44;100.00
78590;BME280;67888;50.228;7.828;2024-02-23T20:06:11;97198.31;;;5.70;100.00
78590;BME280;67888;50.228;7.828;2024-02-23T20:11:12;97201.59;;;5.44;100.00
78590;BME280;67888;50.228;7.828;2024-02-23T20:16:13;97185.97;;;5.01;100.00
78590;BME280;67888;50.228;7.828;2024-02-23T20:21:14;97185.13;;;5.06;100.00
78590;BME280;67888;50.228;7.828;2024-02-23T20:26:15;97196.72;;;5.56;100.00
78590;BME280;67888;50.228;7.828;2024-02-23T20:31:15;97180.69;;;5.62;100.00
78590;BME280;67888;50.228;7.828;2024-02-23T20:36:16;97183.00;;;5.83;100.00
78590;BME280;67888;50.228;7.828;2024-02-23T20:41:17;97195.53;;;6.18;100.00
78590;BME280;67888;50.228;7.828;2024-02-23T20:46:21;97204.00;;;6.10;100.00
78590;BME280;67888;50.228;7.828;2024-02-23T20:51:22;97203.44;;;6.13;100.00
78590;BME280;67888;50.228;7.828;2024-02-23T20:56:23;97197.66;;;6.30;100.00
78590;BME280;67888;50.228;7.828;2024-02-23T21:01:23;97201.09;;;6.11;100.00
78590;BME280;67888;50.228;7.828;2024-02-23T21:06:24;97194.25;;;6.16;100.00
78590;BME280;67888;50.228;7.828;2024-02-23T21:11:24;97186.47;;;6.43;100.00
78590;BME280;67888;50.228;7.828;2024-02-23T21:16:25;97185.88;;;6.46;100.00
78590;BME280;67888;50.228;7.828;2024-02-23T21:21:26;97179.88;;;6.59;100.00
78590;BME280;67888;50.228;7.828;2024-02-23T21:26:27;97181.63;;;6.50;100.00
78590;BME280;67888;50.228;7.828;2024-02-23T21:31:29;97182.88;;;6.39;100.00
78590;BME280;67888;50.228;7.828;2024-02-23T21:36:29;97172.78;;;6.19;100.00
78590;BME280;67888;50.228;7.828;2024-02-23T21:41:30;97168.13;;;5.08;100.00
78590;BME280;67888;50.228;7.828;2024-02-23T21:46:31;97177.72;;;5.13;100.00
78590;BME280;67888;50.228;7.828;2024-02-23T21:51:32;97192.53;;;5.17;100.00
78590;BME280;67888;50.228;7.828;2024-02-23T21:56:33;97189.25;;;6.19;100.00
78590;BME280;67888;50.228;7.828;2024-02-23T22:01:33;97206.97;;;5.85;100.00
78590;BME280;67888;50.228;7.828;2024-02-23T22:06:34;97215.28;;;6.38;100.00
78590;BME280;67888;50.228;7.828;2024-02-23T22:11:35;97221.78;;;6.40;100.00
78590;BME280;67888;50.228;7.828;2024-02-23T22:16:35;97231.97;;;7.10;100.00
78590;BME280;67888;50.228;7.828;2024-02-23T22:21:36;97242.44;;;7.10;100.00
78590;BME280;67888;50.228;7.828;2024-02-23T22:26:36;97229.56;;;7.00;100.00
78590;BME280;67888;50.228;7.828;2024-02-23T22:31:44;97226.25;;;7.22;100.00
78590;BME280;67888;50.228;7.828;2024-02-23T22:36:45;97229.66;;;7.09;100.00
78590;BME280;67888;50.228;7.828;2024-02-23T22:41:46;97235.19;;;7.21;100.00
78590;BME280;67888;50.228;7.828;2024-02-23T22:46:49;97234.00;;;7.00;100.00
78590;BME280;67888;50.228;7.828;2024-02-23T22:51:54;97234.50;;;6.74;100.00
78590;BME280;67888;50.228;7.828;2024-02-23T22:56:55;97221.13;;;6.90;100.00
78590;BME280;67888;50.228;7.828;2024-02-23T23:01:55;97213.78;;;6.92;100.00
78590;BME280;67888;50.228;7.828;2024-02-23T23:06:56;97213.28;;;7.17;100.00
78590;BME280;67888;50.228;7.828;2024-02-23T23:11:56;97213.59;;;6.74;100.00
78590;BME280;67888;50.228;7.828;2024-02-23T23:16:57;97203.53;;;6.81;100.00
78590;BME280;67888;50.228;7.828;2024-02-23T23:21:57;97212.81;;;6.88;100.00
78590;BME280;67888;50.228;7.828;2024-02-23T23:26:58;97209.13;;;6.75;100.00
78590;BME280;67888;50.228;7.828;2024-02-23T23:31:58;97218.00;;;6.33;100.00
78590;BME280;67888;50.228;7.828;2024-02-23T23:36:59;97205.78;;;5.77;100.00
78590;BME280;67888;50.228;7.828;2024-02-23T23:41:59;97215.66;;;5.80;100.00
78590;BME280;67888;50.228;7.828;2024-02-23T23:46:59;97218.19;;;5.85;100.00
78590;BME280;67888;50.228;7.828;2024-02-23T23:52:00;97219.16;;;5.94;100.00
78590;BME280;67888;50.228;7.828;2024-02-23T23:57:00;97223.28;;;5.58;100.00
